createdAt,value
2023-01-22T00:02:06.515Z,33.92
2023-01-22T00:04:33.015Z,36.85
2023-01-22T00:06:59.353Z,31.80
2023-01-22T00:09:25.693Z,34.85
2023-01-22T00:11:52.421Z,36.00
2023-01-22T00:14:18.873Z,33.63
2023-01-22T00:16:45.231Z,31.65
2023-01-22T00:19:11.574Z,38.88
2023-01-22T00:21:37.992Z,32.10
2023-01-22T00:24:04.438Z,31.00
2023-01-22T00:26:30.773Z,27.67
2023-01-22T00:28:57.137Z,31.00
2023-01-22T00:31:23.806Z,27.70
2023-01-22T00:33:50.152Z,28.23
2023-01-22T00:36:17.773Z,28.58
2023-01-22T00:41:10.761Z,33.00
2023-01-22T00:43:40.703Z,27.63
2023-01-22T00:46:08.338Z,33.95
2023-01-22T00:51:00.960Z,27.40
2023-01-22T00:53:27.314Z,28.23
2023-01-22T00:56:00.437Z,28.85
2023-01-22T00:58:27.073Z,28.10
2023-01-22T01:00:53.857Z,27.80
2023-01-22T01:03:32.306Z,29.98
2023-01-22T01:06:00.072Z,36.42
2023-01-22T01:08:27.120Z,30.83
2023-01-22T01:10:54.428Z,28.30
2023-01-22T01:13:20.792Z,29.60
2023-01-22T01:15:47.163Z,29.40
2023-01-22T01:18:14.297Z,30.02
2023-01-22T01:20:40.943Z,28.67
2023-01-22T01:23:07.568Z,33.80
2023-01-22T01:25:33.928Z,25.60
2023-01-22T01:28:00.333Z,25.38
2023-01-22T01:30:26.706Z,28.30
2023-01-22T01:32:52.993Z,29.13
2023-01-22T01:35:19.577Z,29.77
2023-01-22T01:37:45.926Z,23.67
2023-01-22T01:40:12.492Z,22.70
2023-01-22T01:42:39.613Z,25.10
2023-01-22T01:45:22.656Z,25.00
2023-01-22T01:47:52.981Z,23.88
2023-01-22T01:50:20.903Z,28.88
2023-01-22T01:52:47.270Z,24.83
2023-01-22T01:55:15.020Z,24.17
2023-01-22T01:57:41.632Z,27.17
2023-01-22T02:00:12.286Z,23.67
2023-01-22T02:02:38.662Z,22.73
2023-01-22T02:05:05.673Z,24.65
2023-01-22T02:07:31.973Z,28.38
2023-01-22T02:09:58.268Z,27.70
2023-01-22T02:12:24.629Z,26.33
2023-01-22T02:14:50.965Z,25.77
2023-01-22T02:17:21.801Z,24.00
2023-01-22T02:19:48.600Z,27.67
2023-01-22T02:22:17.540Z,23.57
2023-01-22T02:24:43.881Z,24.17
2023-01-22T02:27:10.487Z,25.90
2023-01-22T02:29:37.069Z,26.58
2023-01-22T02:32:03.608Z,25.25
2023-01-22T02:34:29.952Z,28.58
2023-01-22T02:36:56.293Z,26.23
2023-01-22T02:39:22.647Z,34.25
2023-01-22T02:41:49.300Z,25.33
2023-01-22T02:44:15.657Z,23.83
2023-01-22T02:46:41.979Z,26.95
2023-01-22T02:49:08.345Z,24.70
2023-01-22T02:51:34.664Z,31.63
2023-01-22T02:54:01.037Z,25.52
2023-01-22T02:56:27.647Z,22.92
2023-01-22T02:58:53.961Z,24.25
2023-01-22T03:01:21.574Z,22.83
2023-01-22T03:06:21.455Z,21.83
2023-01-22T03:08:48.994Z,18.98
2023-01-22T03:11:16.391Z,23.55
2023-01-22T03:14:01.399Z,20.92
2023-01-22T03:16:46.442Z,24.65
2023-01-22T03:19:31.500Z,19.83
2023-01-22T03:21:57.853Z,20.45
2023-01-22T03:24:24.128Z,22.00
2023-01-22T03:26:50.429Z,23.48
2023-01-22T03:29:16.784Z,17.25
2023-01-22T03:31:48.100Z,19.80
2023-01-22T03:34:15.708Z,19.27
2023-01-22T03:36:42.212Z,20.80
2023-01-22T03:39:08.551Z,18.65
2023-01-22T03:41:34.829Z,20.33
2023-01-22T03:44:03.929Z,19.90
2023-01-22T03:46:30.780Z,20.08
2023-01-22T03:48:57.064Z,18.75
2023-01-22T03:51:23.998Z,19.10
2023-01-22T03:53:50.483Z,19.73
2023-01-22T03:56:18.312Z,19.00
2023-01-22T03:58:44.659Z,18.10
2023-01-22T04:01:12.203Z,18.95
2023-01-22T04:06:05.638Z,16.67
2023-01-22T04:08:33.245Z,17.52
2023-01-22T04:13:26.713Z,17.83
2023-01-22T04:15:53.201Z,19.95
2023-01-22T04:18:19.741Z,16.00
2023-01-22T04:20:47.581Z,17.52
2023-01-22T04:23:13.880Z,21.17
2023-01-22T04:25:40.206Z,15.32
2023-01-22T04:28:07.455Z,15.45
2023-01-22T04:30:34.133Z,15.20
2023-01-22T04:33:00.596Z,16.60
2023-01-22T04:35:26.945Z,16.27
2023-01-22T04:37:53.279Z,14.95
2023-01-22T04:40:20.672Z,16.60
2023-01-22T04:42:47.220Z,12.88
2023-01-22T04:45:13.749Z,16.33
2023-01-22T04:47:44.431Z,14.73
2023-01-22T04:50:40.103Z,14.85
2023-01-22T04:53:06.429Z,15.10
2023-01-22T04:55:33.018Z,19.20
2023-01-22T04:58:00.247Z,16.20
2023-01-22T05:00:27.394Z,13.93
2023-01-22T05:03:00.703Z,12.82
2023-01-22T05:05:27.691Z,15.63
2023-01-22T05:07:54.143Z,14.88
2023-01-22T05:10:21.250Z,16.80
2023-01-22T05:12:47.708Z,14.45
2023-01-22T05:15:23.546Z,14.10
2023-01-22T05:17:50.748Z,18.73
2023-01-22T05:20:17.492Z,15.63
2023-01-22T05:22:44.371Z,15.70
2023-01-22T05:25:10.674Z,65.38
2023-01-22T05:27:37.008Z,16.67
2023-01-22T05:30:04.074Z,15.25
2023-01-22T05:32:30.400Z,19.67
2023-01-22T05:34:56.824Z,17.73
2023-01-22T05:37:23.203Z,13.80
2023-01-22T05:39:49.606Z,15.60
2023-01-22T05:42:16.288Z,15.30
2023-01-22T05:44:42.726Z,18.80
2023-01-22T05:47:09.405Z,15.82
2023-01-22T05:49:35.742Z,14.13
2023-01-22T05:52:02.069Z,17.85
2023-01-22T05:54:28.428Z,14.40
2023-01-22T05:56:54.730Z,21.20
2023-01-22T05:59:21.054Z,17.67
2023-01-22T06:01:47.390Z,17.45
2023-01-22T06:04:13.645Z,13.48
2023-01-22T06:06:39.967Z,17.48
2023-01-22T06:09:06.305Z,16.75
2023-01-22T06:11:32.625Z,18.90
2023-01-22T06:13:58.997Z,16.35
2023-01-22T06:16:25.340Z,25.73
2023-01-22T06:18:51.641Z,15.38
2023-01-22T06:21:17.932Z,14.95
2023-01-22T06:23:44.295Z,18.65
2023-01-22T06:26:10.610Z,11.63
2023-01-22T06:28:36.938Z,14.55
2023-01-22T06:31:05.679Z,14.27
2023-01-22T06:33:33.574Z,15.40
2023-01-22T06:36:00.135Z,11.77
2023-01-22T06:38:26.544Z,16.08
2023-01-22T06:40:53.753Z,14.43
2023-01-22T06:43:20.113Z,12.73
2023-01-22T06:45:46.500Z,11.43
2023-01-22T06:48:13.083Z,13.70
2023-01-22T06:50:39.399Z,15.80
2023-01-22T06:53:05.825Z,12.90
2023-01-22T06:55:32.167Z,16.02
2023-01-22T06:57:58.544Z,15.60
2023-01-22T07:00:24.868Z,12.23
2023-01-22T07:02:52.440Z,16.08
2023-01-22T07:05:20.116Z,12.10
2023-01-22T07:10:12.801Z,19.55
2023-01-22T07:12:39.082Z,12.32
2023-01-22T07:15:07.835Z,11.43
2023-01-22T07:17:34.527Z,11.07
2023-01-22T07:20:00.858Z,11.23
2023-01-22T07:22:27.179Z,10.90
2023-01-22T07:24:53.538Z,12.40
2023-01-22T07:27:19.905Z,15.45
2023-01-22T07:29:47.482Z,11.52
2023-01-22T07:32:13.840Z,13.75
2023-01-22T07:34:40.206Z,13.68
2023-01-22T07:37:06.574Z,16.17
2023-01-22T07:39:32.906Z,15.45
2023-01-22T07:42:01.292Z,13.38
2023-01-22T07:44:27.835Z,13.18
2023-01-22T07:46:54.204Z,12.05
2023-01-22T07:49:20.605Z,13.20
2023-01-22T07:51:47.103Z,14.77
2023-01-22T07:54:13.460Z,13.75
2023-01-22T07:56:39.832Z,12.93
2023-01-22T07:59:06.138Z,12.48
2023-01-22T08:01:32.452Z,13.98
2023-01-22T08:03:58.857Z,13.43
2023-01-22T08:06:25.182Z,13.73
2023-01-22T08:08:51.475Z,16.50
2023-01-22T08:11:18.038Z,12.85
2023-01-22T08:13:44.368Z,15.38
2023-01-22T08:16:10.855Z,15.55
2023-01-22T08:18:37.321Z,12.85
2023-01-22T08:21:04.012Z,14.35
2023-01-22T08:23:30.338Z,12.63
2023-01-22T08:26:00.576Z,13.07
2023-01-22T08:28:27.144Z,12.65
2023-01-22T08:30:56.925Z,12.77
2023-01-22T08:33:23.190Z,13.90
2023-01-22T08:35:50.155Z,12.25
2023-01-22T08:38:16.600Z,11.57
2023-01-22T08:40:42.936Z,16.98
2023-01-22T08:43:09.359Z,12.63
2023-01-22T08:45:35.610Z,12.48
2023-01-22T08:48:01.983Z,13.43
2023-01-22T08:50:29.686Z,15.02
2023-01-22T08:55:22.280Z,12.82
2023-01-22T08:57:52.573Z,12.05
2023-01-22T09:00:19.276Z,14.50
2023-01-22T09:02:45.846Z,15.10
2023-01-22T09:05:12.085Z,16.25
2023-01-22T09:07:38.431Z,13.98
2023-01-22T09:10:08.069Z,12.63
2023-01-22T09:12:34.627Z,13.35
2023-01-22T09:15:01.005Z,14.38
2023-01-22T09:17:28.159Z,13.02
2023-01-22T09:19:54.459Z,13.88
2023-01-22T09:22:20.812Z,10.95
2023-01-22T09:24:47.114Z,15.50
2023-01-22T09:27:13.590Z,15.63
2023-01-22T09:29:40.038Z,12.00
2023-01-22T09:32:06.370Z,13.20
2023-01-22T09:34:33.416Z,13.80
2023-01-22T09:37:02.590Z,13.63
2023-01-22T09:39:28.893Z,17.48
2023-01-22T09:41:56.998Z,16.77
2023-01-22T09:44:30.100Z,15.45
2023-01-22T09:46:58.279Z,14.02
2023-01-22T09:49:28.287Z,11.27
2023-01-22T09:51:56.135Z,12.73
2023-01-22T09:54:22.946Z,15.98
2023-01-22T09:56:51.078Z,11.57
2023-01-22T09:59:19.323Z,12.50
2023-01-22T10:01:46.685Z,12.45
2023-01-22T10:04:34.844Z,12.05
2023-01-22T10:07:02.786Z,14.15
2023-01-22T10:09:30.925Z,16.15
2023-01-22T10:11:59.146Z,13.75
2023-01-22T10:14:27.585Z,16.00
2023-01-22T10:16:54.463Z,16.70
2023-01-22T10:19:42.351Z,13.07
2023-01-22T10:22:13.860Z,14.52
2023-01-22T10:24:40.181Z,23.33
2023-01-22T10:27:11.342Z,20.90
2023-01-22T10:29:39.005Z,13.48
2023-01-22T10:34:34.486Z,15.10
2023-01-22T10:37:02.558Z,13.68
2023-01-22T10:39:38.045Z,21.15
2023-01-22T10:42:04.412Z,19.08
2023-01-22T10:44:30.763Z,16.08
2023-01-22T10:47:06.856Z,13.93
2023-01-22T10:49:33.192Z,18.15
2023-01-22T10:52:02.242Z,12.88
2023-01-22T10:54:43.871Z,17.52
2023-01-22T10:57:26.970Z,13.90
2023-01-22T10:59:55.611Z,14.85
2023-01-22T11:02:23.578Z,14.68
2023-01-22T11:04:50.289Z,13.13
2023-01-22T11:07:32.609Z,14.53
2023-01-22T11:10:01.851Z,15.18
2023-01-22T11:12:34.138Z,19.08
2023-01-22T11:15:09.486Z,14.40
2023-01-22T11:17:40.435Z,13.85
2023-01-22T11:20:17.170Z,14.65
2023-01-22T11:22:45.071Z,14.88
2023-01-22T11:25:11.458Z,16.10
2023-01-22T11:27:37.794Z,19.52
2023-01-22T11:30:04.121Z,16.50
2023-01-22T11:32:33.414Z,14.73
2023-01-22T11:35:02.738Z,18.27
2023-01-22T11:37:48.063Z,17.02
2023-01-22T11:40:17.734Z,16.05
2023-01-22T11:42:57.700Z,17.60
2023-01-22T11:45:23.996Z,19.10
2023-01-22T11:47:53.118Z,14.50
2023-01-22T11:50:26.350Z,18.73
2023-01-22T11:52:58.784Z,16.40
2023-01-22T11:55:44.085Z,13.55
2023-01-22T11:58:25.777Z,17.52
2023-01-22T12:01:09.909Z,15.13
2023-01-22T12:03:36.342Z,16.63
2023-01-22T12:06:12.649Z,15.82
2023-01-22T12:08:48.771Z,15.52
2023-01-22T12:11:34.786Z,15.88
2023-01-22T12:14:19.973Z,18.08
2023-01-22T12:17:11.779Z,17.15
2023-01-22T12:19:43.559Z,20.92
2023-01-22T12:22:28.752Z,17.60
2023-01-22T12:25:01.888Z,19.00
2023-01-22T12:27:49.211Z,16.33
2023-01-22T12:30:18.397Z,22.90
2023-01-22T12:32:48.328Z,17.38
2023-01-22T12:35:19.105Z,21.58
2023-01-22T12:38:04.316Z,17.40
2023-01-22T12:40:31.875Z,17.65
2023-01-22T12:43:02.053Z,20.13
2023-01-22T12:45:37.671Z,20.63
2023-01-22T12:48:10.151Z,20.70
2023-01-22T12:50:37.713Z,20.20
2023-01-22T12:53:05.123Z,19.60
2023-01-22T12:55:34.178Z,20.77
2023-01-22T12:58:01.535Z,19.58
2023-01-22T13:00:35.757Z,20.38
2023-01-22T13:03:30.932Z,21.27
2023-01-22T13:05:58.478Z,18.65
2023-01-22T13:08:35.484Z,19.98
2023-01-22T13:11:03.686Z,18.55
2023-01-22T13:13:32.787Z,18.45
2023-01-22T13:16:01.905Z,15.68
2023-01-22T13:18:30.920Z,21.08
2023-01-22T13:21:08.151Z,15.25
2023-01-22T13:23:35.967Z,16.40
2023-01-22T13:26:03.500Z,23.17
2023-01-22T13:28:30.561Z,31.38
2023-01-22T13:31:01.796Z,24.30
2023-01-22T13:33:28.457Z,18.88
2023-01-22T13:35:55.283Z,24.95
2023-01-22T13:38:23.270Z,23.80
2023-01-22T13:40:53.494Z,30.42
2023-01-22T13:43:21.062Z,20.13
2023-01-22T13:48:17.964Z,19.42
2023-01-22T13:50:52.076Z,19.83
2023-01-22T13:53:23.124Z,18.55
2023-01-22T13:55:49.731Z,21.92
2023-01-22T13:58:46.508Z,18.73
2023-01-22T14:01:26.549Z,21.63
2023-01-22T14:04:03.476Z,19.33
2023-01-22T14:06:30.061Z,19.15
2023-01-22T14:08:57.644Z,20.95
2023-01-22T14:13:51.968Z,17.23
2023-01-22T14:16:18.328Z,23.00
2023-01-22T14:18:47.746Z,25.23
2023-01-22T14:21:14.452Z,22.13
2023-01-22T14:23:42.654Z,19.63
2023-01-22T14:26:09.233Z,16.60
2023-01-22T14:28:35.893Z,23.73
2023-01-22T14:31:02.406Z,18.73
2023-01-22T14:33:32.733Z,23.95
2023-01-22T14:35:59.297Z,22.40
2023-01-22T14:38:26.067Z,22.27
2023-01-22T14:40:52.640Z,22.67
2023-01-22T14:43:19.051Z,23.02
2023-01-22T14:45:46.135Z,19.63
2023-01-22T14:48:13.378Z,24.15
2023-01-22T14:50:40.656Z,22.25
2023-01-22T14:53:07.469Z,19.02
2023-01-22T14:55:33.751Z,21.58
2023-01-22T14:58:00.153Z,20.65
2023-01-22T15:00:27.670Z,25.08
2023-01-22T15:02:54.558Z,26.33
2023-01-22T15:05:20.852Z,19.33
2023-01-22T15:07:47.383Z,26.23
2023-01-22T15:10:13.765Z,21.58
2023-01-22T15:12:40.278Z,24.98
2023-01-22T15:15:08.874Z,23.17
2023-01-22T15:17:36.238Z,28.50
2023-01-22T15:20:04.197Z,22.02
2023-01-22T15:22:30.709Z,23.10
2023-01-22T15:24:57.067Z,25.80
2023-01-22T15:27:23.494Z,24.77
2023-01-22T15:29:49.852Z,23.45
2023-01-22T15:32:16.131Z,124.70
2023-01-22T15:34:42.463Z,88.35
2023-01-22T15:37:09.076Z,46.33
2023-01-22T15:39:35.434Z,21.33
2023-01-22T15:42:01.759Z,38.95
2023-01-22T15:44:28.177Z,16.58
2023-01-22T15:46:55.638Z,18.75
2023-01-22T15:49:21.880Z,17.42
2023-01-22T15:51:48.160Z,17.58
2023-01-22T15:54:15.533Z,21.30
2023-01-22T15:56:42.264Z,20.30
2023-01-22T15:59:08.667Z,19.47
2023-01-22T16:01:35.152Z,25.73
2023-01-22T16:04:03.028Z,23.10
2023-01-22T16:06:30.771Z,21.23
2023-01-22T16:08:57.806Z,18.60
2023-01-22T16:11:24.892Z,27.80
2023-01-22T16:13:51.249Z,22.30
2023-01-22T16:16:20.098Z,19.42
2023-01-22T16:18:46.870Z,20.83
2023-01-22T16:21:13.754Z,24.37
2023-01-22T16:23:42.124Z,19.08
2023-01-22T16:26:10.631Z,21.23
2023-01-22T16:28:37.269Z,18.02
2023-01-22T16:31:04.657Z,21.98
2023-01-22T16:33:31.583Z,25.83
2023-01-22T16:35:59.102Z,19.95
2023-01-22T16:38:25.543Z,21.98
2023-01-22T16:40:53.019Z,18.50
2023-01-22T16:43:19.309Z,20.90
2023-01-22T16:45:45.677Z,19.83
2023-01-22T16:48:12.012Z,21.90
2023-01-22T16:50:38.365Z,40.38
2023-01-22T16:53:04.668Z,39.72
2023-01-22T16:55:31.002Z,24.67
2023-01-22T16:57:58.840Z,28.48
2023-01-22T17:00:25.197Z,24.25
2023-01-22T17:02:51.573Z,27.83
2023-01-22T17:05:17.960Z,21.25
2023-01-22T17:07:44.290Z,20.05
2023-01-22T17:10:10.892Z,24.75
2023-01-22T17:12:37.266Z,32.35
2023-01-22T17:15:03.722Z,20.30
2023-01-22T17:17:30.021Z,21.73
2023-01-22T17:19:56.419Z,23.90
2023-01-22T17:22:24.241Z,22.05
2023-01-22T17:24:50.670Z,20.98
2023-01-22T17:27:18.623Z,21.80
2023-01-22T17:29:45.083Z,19.52
2023-01-22T17:32:11.438Z,23.73
2023-01-22T17:34:37.709Z,28.38
2023-01-22T17:37:10.267Z,42.88
2023-01-22T17:39:37.497Z,32.20
2023-01-22T17:42:03.901Z,26.20
2023-01-22T17:44:30.257Z,25.65
2023-01-22T17:46:59.809Z,21.98
2023-01-22T17:49:26.575Z,50.13
2023-01-22T17:51:52.955Z,51.30
2023-01-22T17:54:19.793Z,23.45
2023-01-22T17:56:48.950Z,29.60
2023-01-22T17:59:15.378Z,32.08
2023-01-22T18:01:41.875Z,44.95
2023-01-22T18:04:09.385Z,26.67
2023-01-22T18:06:36.799Z,40.72
2023-01-22T18:09:05.115Z,25.65
2023-01-22T18:11:32.987Z,27.00
2023-01-22T18:14:01.074Z,24.08
2023-01-22T18:16:28.566Z,26.27
2023-01-22T18:18:54.961Z,28.05
2023-01-22T18:21:21.915Z,29.63
2023-01-22T18:23:48.841Z,33.55
2023-01-22T18:26:15.557Z,27.90
2023-01-22T18:28:41.932Z,26.77
2023-01-22T18:31:10.251Z,27.80
2023-01-22T18:33:37.615Z,24.35
2023-01-22T18:36:10.604Z,28.08
2023-01-22T18:38:37.478Z,23.83
2023-01-22T18:41:11.111Z,24.48
2023-01-22T18:43:38.259Z,26.27
2023-01-22T18:46:05.903Z,25.17
2023-01-22T18:50:58.723Z,34.40
2023-01-22T18:53:25.156Z,29.80
2023-01-22T18:55:51.554Z,27.77
2023-01-22T18:58:36.332Z,26.73
2023-01-22T19:01:13.508Z,26.08
2023-01-22T19:03:40.906Z,27.92
2023-01-22T19:06:14.705Z,24.70
2023-01-22T19:08:45.493Z,23.83
2023-01-22T19:11:12.294Z,26.27
2023-01-22T19:13:39.648Z,22.50
2023-01-22T19:16:06.939Z,25.55
2023-01-22T19:18:33.376Z,23.23
2023-01-22T19:21:19.425Z,20.50
2023-01-22T19:23:47.206Z,22.83
2023-01-22T19:26:23.909Z,23.63
2023-01-22T19:28:51.932Z,25.75
2023-01-22T19:31:19.604Z,21.92
2023-01-22T19:33:46.430Z,20.80
2023-01-22T19:36:13.057Z,25.27
2023-01-22T19:38:39.675Z,24.52
2023-01-22T19:41:06.272Z,24.20
2023-01-22T19:43:32.880Z,29.15
2023-01-22T19:46:07.353Z,22.65
2023-01-22T19:48:34.519Z,28.95
2023-01-22T19:51:01.838Z,26.98
2023-01-22T19:53:28.779Z,31.35
2023-01-22T19:55:55.353Z,24.55
2023-01-22T19:58:21.653Z,29.52
2023-01-22T20:00:48.017Z,35.13
2023-01-22T20:03:14.549Z,39.42
2023-01-22T20:05:41.691Z,27.70
2023-01-22T20:08:08.453Z,20.48
2023-01-22T20:10:37.324Z,24.10
2023-01-22T20:13:04.320Z,27.58
2023-01-22T20:15:30.717Z,19.08
2023-01-22T20:17:57.352Z,23.70
2023-01-22T20:20:23.724Z,23.75
2023-01-22T20:22:52.308Z,23.50
2023-01-22T20:25:21.031Z,24.55
2023-01-22T20:27:48.499Z,28.02
2023-01-22T20:30:14.936Z,26.17
2023-01-22T20:32:41.311Z,37.60
2023-01-22T20:35:07.860Z,36.50
2023-01-22T20:37:34.188Z,29.75
2023-01-22T20:40:00.885Z,30.88
2023-01-22T20:42:28.299Z,22.33
2023-01-22T20:44:54.660Z,35.13
2023-01-22T20:47:20.930Z,31.85
2023-01-22T20:49:47.320Z,33.53
2023-01-22T20:52:14.818Z,27.05
2023-01-22T20:54:54.821Z,26.10
2023-01-22T20:57:27.681Z,24.58
2023-01-22T20:59:54.125Z,33.08
2023-01-22T21:02:20.470Z,26.33
2023-01-22T21:04:49.898Z,25.73
2023-01-22T21:07:16.224Z,26.58
2023-01-22T21:09:42.643Z,21.75
2023-01-22T21:12:09.032Z,25.75
2023-01-22T21:14:35.549Z,26.67
2023-01-22T21:17:01.890Z,28.83
2023-01-22T21:19:29.301Z,22.50
2023-01-22T21:21:57.291Z,25.23
2023-01-22T21:24:24.434Z,21.85
2023-01-22T21:26:50.803Z,23.65
2023-01-22T21:29:18.832Z,23.65
2023-01-22T21:31:48.856Z,23.92
2023-01-22T21:34:15.797Z,37.20
2023-01-22T21:36:44.980Z,29.42
2023-01-22T21:39:14.645Z,23.80
2023-01-22T21:41:41.267Z,24.52
2023-01-22T21:44:26.393Z,23.30
2023-01-22T21:46:52.731Z,25.33
2023-01-22T21:49:21.724Z,25.63
2023-01-22T21:51:59.472Z,22.60
2023-01-22T21:54:30.007Z,21.95
2023-01-22T21:56:56.706Z,19.60
2023-01-22T21:59:23.091Z,21.37
2023-01-22T22:01:54.544Z,24.48
2023-01-22T22:04:22.256Z,22.73
2023-01-22T22:09:16.011Z,23.83
2023-01-22T22:14:10.472Z,27.52
2023-01-22T22:16:37.167Z,24.45
2023-01-22T22:19:03.636Z,22.73
2023-01-22T22:21:29.974Z,23.77
2023-01-22T22:23:57.204Z,25.60
2023-01-22T22:26:24.207Z,24.38
2023-01-22T22:28:50.997Z,28.75
2023-01-22T22:31:17.745Z,27.73
2023-01-22T22:33:48.350Z,27.15
2023-01-22T22:36:15.599Z,27.90
2023-01-22T22:38:42.272Z,24.10
2023-01-22T22:41:11.684Z,28.92
2023-01-22T22:43:39.387Z,26.67
2023-01-22T22:46:07.194Z,27.10
2023-01-22T22:48:33.963Z,32.40
2023-01-22T22:51:00.493Z,27.33
2023-01-22T22:53:27.010Z,27.20
2023-01-22T22:55:53.297Z,28.73
2023-01-22T22:58:20.714Z,33.05
2023-01-22T23:00:47.022Z,32.55
2023-01-22T23:03:13.333Z,33.08
2023-01-22T23:05:40.042Z,32.20
2023-01-22T23:08:06.354Z,32.93
2023-01-22T23:10:32.659Z,27.92
2023-01-22T23:13:00.022Z,39.95
2023-01-22T23:15:27.208Z,30.48
2023-01-22T23:17:54.482Z,27.20
2023-01-22T23:20:21.414Z,27.25
2023-01-22T23:22:49.693Z,28.23
2023-01-22T23:25:16.983Z,28.13
2023-01-22T23:27:43.754Z,43.10
2023-01-22T23:30:11.080Z,30.90
2023-01-22T23:32:37.460Z,34.95
2023-01-22T23:35:03.906Z,30.45
2023-01-22T23:37:30.205Z,31.60
2023-01-22T23:39:56.558Z,30.33
2023-01-22T23:42:22.912Z,31.55
2023-01-22T23:44:49.186Z,27.60
2023-01-22T23:47:15.497Z,30.50
2023-01-22T23:49:41.931Z,32.17
2023-01-22T23:52:08.263Z,29.83
2023-01-22T23:54:34.562Z,30.42
2023-01-22T23:57:00.890Z,25.52
2023-01-22T23:59:27.199Z,31.40
